createdAt,value
2018-10-15T00:01:03.320Z,14.70
2018-10-15T00:03:31.750Z,14.70
2018-10-15T00:06:00.137Z,14.60
2018-10-15T00:08:28.516Z,14.60
2018-10-15T00:10:56.914Z,14.60
2018-10-15T00:13:25.768Z,14.60
2018-10-15T00:15:55.246Z,14.50
2018-10-15T00:18:23.539Z,14.60
2018-10-15T00:20:51.816Z,14.50
2018-10-15T00:23:20.184Z,14.50
2018-10-15T00:25:48.545Z,14.50
2018-10-15T00:28:16.852Z,14.50
2018-10-15T00:30:45.205Z,14.50
2018-10-15T00:33:13.480Z,14.50
2018-10-15T00:35:41.845Z,14.50
2018-10-15T00:38:10.127Z,14.50
2018-10-15T00:40:38.494Z,14.50
2018-10-15T00:43:06.842Z,14.50
2018-10-15T00:45:35.211Z,14.50
2018-10-15T00:48:03.533Z,14.50
2018-10-15T00:50:31.954Z,14.50
2018-10-15T00:53:00.214Z,14.50
2018-10-15T00:55:28.791Z,14.50
2018-10-15T00:57:57.153Z,14.60
2018-10-15T01:00:25.449Z,14.60
2018-10-15T01:02:53.885Z,14.60
2018-10-15T01:05:22.243Z,14.60
2018-10-15T01:07:50.641Z,14.60
2018-10-15T01:10:19.006Z,14.60
2018-10-15T01:12:47.359Z,14.60
2018-10-15T01:15:15.648Z,14.60
2018-10-15T01:17:43.933Z,14.60
2018-10-15T01:20:13.677Z,14.60
2018-10-15T01:22:42.046Z,14.60
2018-10-15T01:25:11.324Z,14.60
2018-10-15T01:27:39.810Z,14.60
2018-10-15T01:30:09.395Z,14.60
2018-10-15T01:32:38.163Z,14.60
2018-10-15T01:35:06.452Z,14.60
2018-10-15T01:37:34.723Z,14.60
2018-10-15T01:40:03.093Z,14.60
2018-10-15T01:42:31.468Z,14.60
2018-10-15T01:44:59.842Z,14.60
2018-10-15T01:47:28.167Z,14.60
2018-10-15T01:49:56.631Z,14.60
2018-10-15T01:52:24.918Z,14.60
2018-10-15T01:54:53.260Z,14.60
2018-10-15T01:57:21.574Z,14.60
2018-10-15T01:59:49.970Z,14.70
2018-10-15T02:02:18.399Z,14.70
2018-10-15T02:04:46.845Z,14.70
2018-10-15T02:07:15.208Z,14.70
2018-10-15T02:09:43.573Z,14.70
2018-10-15T02:12:12.014Z,14.70
2018-10-15T02:14:40.380Z,14.70
2018-10-15T02:17:08.697Z,14.70
2018-10-15T02:19:37.076Z,14.70
2018-10-15T02:22:05.807Z,14.70
2018-10-15T02:24:34.222Z,14.70
2018-10-15T02:27:02.556Z,14.70
2018-10-15T02:29:30.953Z,14.70
2018-10-15T02:31:59.356Z,14.60
2018-10-15T02:34:27.690Z,14.60
2018-10-15T02:36:57.945Z,14.60
2018-10-15T02:39:26.295Z,14.60
2018-10-15T02:41:54.664Z,14.60
2018-10-15T02:44:22.960Z,14.60
2018-10-15T02:46:51.277Z,14.50
2018-10-15T02:49:19.636Z,14.50
2018-10-15T02:51:47.986Z,14.50
2018-10-15T02:54:16.290Z,14.50
2018-10-15T02:56:44.626Z,14.50
2018-10-15T02:59:13.342Z,14.40
2018-10-15T03:01:41.690Z,14.40
2018-10-15T03:04:10.045Z,14.40
2018-10-15T03:06:38.461Z,14.30
2018-10-15T03:09:08.218Z,14.30
2018-10-15T03:11:36.518Z,14.30
2018-10-15T03:14:05.612Z,14.30
2018-10-15T03:16:33.916Z,14.20
2018-10-15T03:19:04.208Z,14.20
2018-10-15T03:21:32.795Z,14.10
2018-10-15T03:24:01.242Z,14.10
2018-10-15T03:26:29.586Z,14.10
2018-10-15T03:28:57.881Z,14.10
2018-10-15T03:31:26.186Z,14.00
2018-10-15T03:33:54.536Z,14.00
2018-10-15T03:36:22.880Z,14.00
2018-10-15T03:38:51.218Z,14.00
2018-10-15T03:41:19.581Z,14.00
2018-10-15T03:43:47.936Z,14.00
2018-10-15T03:46:16.242Z,14.00
2018-10-15T03:48:44.585Z,13.90
2018-10-15T03:51:12.918Z,13.90
2018-10-15T03:53:41.260Z,13.90
2018-10-15T03:56:09.677Z,13.90
2018-10-15T03:58:38.159Z,13.90
2018-10-15T04:01:06.470Z,13.90
2018-10-15T04:03:34.822Z,13.80
2018-10-15T04:06:03.117Z,13.80
2018-10-15T04:08:31.737Z,13.80
2018-10-15T04:11:00.641Z,13.80
2018-10-15T04:13:29.479Z,13.80
2018-10-15T04:15:58.767Z,13.80
2018-10-15T04:18:27.229Z,13.70
2018-10-15T04:20:55.535Z,13.70
2018-10-15T04:23:23.897Z,13.70
2018-10-15T04:25:52.258Z,13.70
2018-10-15T04:28:20.777Z,13.70
2018-10-15T04:30:49.012Z,13.70
2018-10-15T04:33:17.229Z,13.60
2018-10-15T04:35:45.426Z,13.60
2018-10-15T04:38:13.672Z,13.60
2018-10-15T04:40:42.028Z,13.60
2018-10-15T04:43:10.237Z,13.60
2018-10-15T04:45:38.414Z,13.50
2018-10-15T04:48:06.706Z,13.50
2018-10-15T04:50:34.912Z,13.50
2018-10-15T04:53:03.208Z,13.50
2018-10-15T04:55:31.467Z,13.50
2018-10-15T04:57:59.752Z,13.40
2018-10-15T05:00:28.117Z,13.40
2018-10-15T05:02:56.232Z,13.40
2018-10-15T05:05:24.468Z,13.40
2018-10-15T05:07:53.435Z,13.40
2018-10-15T05:10:21.653Z,13.30
2018-10-15T05:12:49.882Z,13.30
2018-10-15T05:15:18.080Z,13.30
2018-10-15T05:17:46.391Z,13.30
2018-10-15T05:20:14.683Z,13.30
2018-10-15T05:22:42.930Z,13.30
2018-10-15T05:25:11.159Z,13.30
2018-10-15T05:27:39.373Z,13.30
2018-10-15T05:30:08.272Z,13.30
2018-10-15T05:32:36.730Z,13.30
2018-10-15T05:35:06.556Z,13.30
2018-10-15T05:37:34.735Z,13.30
2018-10-15T05:40:03.095Z,13.30
2018-10-15T05:42:31.300Z,13.30
2018-10-15T05:44:59.545Z,13.40
2018-10-15T05:47:27.798Z,13.30
2018-10-15T05:49:56.009Z,13.40
2018-10-15T05:52:24.213Z,13.40
2018-10-15T05:54:52.484Z,13.40
2018-10-15T05:57:20.735Z,13.40
2018-10-15T05:59:48.909Z,13.40
2018-10-15T06:02:17.106Z,13.40
2018-10-15T06:04:45.861Z,13.40
2018-10-15T06:07:14.115Z,13.40
2018-10-15T06:09:42.341Z,13.40
2018-10-15T06:12:10.618Z,13.40
2018-10-15T06:14:38.848Z,13.40
2018-10-15T06:17:07.056Z,13.50
2018-10-15T06:19:35.319Z,13.50
2018-10-15T06:22:03.534Z,13.50
2018-10-15T06:24:31.784Z,13.50
2018-10-15T06:27:00.038Z,13.60
2018-10-15T06:29:28.304Z,13.60
2018-10-15T06:31:56.862Z,13.60
2018-10-15T06:34:25.135Z,13.60
2018-10-15T06:36:53.360Z,13.60
2018-10-15T06:39:21.641Z,13.60
2018-10-15T06:41:49.900Z,13.70
2018-10-15T06:44:18.135Z,13.70
2018-10-15T06:46:47.491Z,13.70
2018-10-15T06:49:15.781Z,13.70
2018-10-15T06:51:43.981Z,13.80
2018-10-15T06:54:12.496Z,13.80
2018-10-15T06:56:42.401Z,13.80
2018-10-15T06:59:10.695Z,13.80
2018-10-15T07:01:38.923Z,13.90
2018-10-15T07:04:07.482Z,13.90
2018-10-15T07:06:35.685Z,14.00
2018-10-15T07:09:05.605Z,13.90
2018-10-15T07:11:33.927Z,14.00
2018-10-15T07:14:02.228Z,14.00
2018-10-15T07:16:30.911Z,14.10
2018-10-15T07:18:59.688Z,14.10
2018-10-15T07:21:27.917Z,14.20
2018-10-15T07:23:56.973Z,14.20
2018-10-15T07:26:25.227Z,14.30
2018-10-15T07:28:53.506Z,14.40
2018-10-15T07:31:21.737Z,14.40
2018-10-15T07:33:50.014Z,14.50
2018-10-15T07:36:18.657Z,14.60
2018-10-15T07:38:47.264Z,14.60
2018-10-15T07:41:15.534Z,14.70
2018-10-15T07:43:43.744Z,14.80
2018-10-15T07:46:12.554Z,14.80
2018-10-15T07:48:41.300Z,14.90
2018-10-15T07:51:09.533Z,15.00
2018-10-15T07:53:38.018Z,15.00
2018-10-15T07:56:06.457Z,15.10
2018-10-15T07:58:34.761Z,15.20
2018-10-15T08:01:03.000Z,15.30
2018-10-15T08:03:31.169Z,15.40
2018-10-15T08:05:59.333Z,15.40
2018-10-15T08:08:27.591Z,15.50
2018-10-15T08:10:55.784Z,15.60
2018-10-15T08:13:26.067Z,15.70
2018-10-15T08:15:54.327Z,15.80
2018-10-15T08:18:22.660Z,15.90
2018-10-15T08:20:51.016Z,16.00
2018-10-15T08:23:19.269Z,16.10
2018-10-15T08:25:47.508Z,16.20
2018-10-15T08:28:17.376Z,16.20
2018-10-15T08:30:45.617Z,16.30
2018-10-15T08:33:14.034Z,16.40
2018-10-15T08:35:42.425Z,16.50
2018-10-15T08:38:10.887Z,16.50
2018-10-15T08:40:39.304Z,16.60
2018-10-15T08:43:07.585Z,16.70
2018-10-15T08:45:35.764Z,16.70
2018-10-15T08:48:04.467Z,16.80
2018-10-15T08:50:32.787Z,16.90
2018-10-15T08:53:00.870Z,17.00
2018-10-15T08:55:29.151Z,17.10
2018-10-15T08:57:57.504Z,17.10
2018-10-15T09:00:26.372Z,17.20
2018-10-15T09:02:54.772Z,17.30
2018-10-15T09:05:22.999Z,17.30
2018-10-15T09:07:51.845Z,17.30
2018-10-15T09:10:20.605Z,17.40
2018-10-15T09:12:48.972Z,17.40
2018-10-15T09:15:20.385Z,17.50
2018-10-15T09:17:48.777Z,17.50
2018-10-15T09:20:16.914Z,17.60
2018-10-15T09:22:45.621Z,17.70
2018-10-15T09:25:15.384Z,17.70
2018-10-15T09:27:44.144Z,17.80
2018-10-15T09:30:14.193Z,17.90
2018-10-15T09:32:42.887Z,17.90
2018-10-15T09:35:12.531Z,18.00
2018-10-15T09:37:41.133Z,18.10
2018-10-15T09:40:11.599Z,18.20
2018-10-15T09:42:40.509Z,18.30
2018-10-15T09:45:10.902Z,18.30
2018-10-15T09:47:39.144Z,18.40
2018-10-15T09:50:07.579Z,18.50
2018-10-15T09:52:35.898Z,18.50
2018-10-15T09:55:04.418Z,18.60
2018-10-15T09:57:33.888Z,18.70
2018-10-15T10:00:02.171Z,18.80
2018-10-15T10:02:30.531Z,18.90
2018-10-15T10:05:00.083Z,19.00
2018-10-15T10:07:28.283Z,19.00
2018-10-15T10:09:56.488Z,19.10
2018-10-15T10:12:24.759Z,19.10
2018-10-15T10:14:53.115Z,19.20
2018-10-15T10:17:21.335Z,19.20
2018-10-15T10:19:49.488Z,19.30
2018-10-15T10:22:18.099Z,19.40
2018-10-15T10:24:46.621Z,19.40
2018-10-15T10:27:14.881Z,19.40
2018-10-15T10:29:43.193Z,19.50
2018-10-15T10:32:11.530Z,19.60
2018-10-15T10:35:00.650Z,19.60
2018-10-15T10:37:28.979Z,19.70
2018-10-15T10:39:57.335Z,19.70
2018-10-15T10:42:25.546Z,19.80
2018-10-15T10:44:54.279Z,19.80
2018-10-15T10:47:23.921Z,19.80
2018-10-15T10:49:52.068Z,19.90
2018-10-15T10:52:27.027Z,19.90
2018-10-15T10:54:55.942Z,19.90
2018-10-15T10:57:24.185Z,20.00
2018-10-15T10:59:53.115Z,20.00
2018-10-15T11:02:21.488Z,20.00
2018-10-15T11:04:49.654Z,20.00
2018-10-15T11:07:17.874Z,20.10
2018-10-15T11:09:46.110Z,20.10
2018-10-15T11:12:14.386Z,20.20
2018-10-15T11:14:42.736Z,20.20
2018-10-15T11:17:11.008Z,20.30
2018-10-15T11:19:39.584Z,20.40
2018-10-15T11:22:07.874Z,20.40
2018-10-15T11:24:36.119Z,20.40
2018-10-15T11:27:04.770Z,20.50
2018-10-15T11:29:33.008Z,20.60
2018-10-15T11:32:01.388Z,20.60
2018-10-15T11:34:29.698Z,20.60
2018-10-15T11:36:57.918Z,20.70
2018-10-15T11:39:26.230Z,20.80
2018-10-15T11:41:55.586Z,20.80
2018-10-15T11:44:23.837Z,20.90
2018-10-15T11:46:52.099Z,21.00
2018-10-15T11:49:20.626Z,21.10
2018-10-15T11:51:48.858Z,21.20
2018-10-15T11:54:17.110Z,21.20
2018-10-15T11:56:45.828Z,21.30
2018-10-15T11:59:14.120Z,21.40
2018-10-15T12:01:43.325Z,21.40
2018-10-15T12:04:11.524Z,21.50
2018-10-15T12:06:39.767Z,21.50
2018-10-15T12:09:10.197Z,21.60
2018-10-15T12:11:38.438Z,21.60
2018-10-15T12:14:06.679Z,21.60
2018-10-15T12:16:35.772Z,21.70
2018-10-15T12:19:04.019Z,21.70
2018-10-15T12:21:32.555Z,21.80
2018-10-15T12:24:00.787Z,21.80
2018-10-15T12:26:29.020Z,21.90
2018-10-15T12:28:57.252Z,21.90
2018-10-15T12:31:25.744Z,22.00
2018-10-15T12:33:53.944Z,22.10
2018-10-15T12:36:22.187Z,22.10
2018-10-15T12:38:50.490Z,22.10
2018-10-15T12:41:19.693Z,22.20
2018-10-15T12:43:48.202Z,22.20
2018-10-15T12:46:16.544Z,22.20
2018-10-15T12:48:45.385Z,22.30
2018-10-15T12:51:13.598Z,22.30
2018-10-15T12:53:41.997Z,22.30
2018-10-15T12:56:10.125Z,22.30
2018-10-15T12:58:38.337Z,22.30
2018-10-15T13:01:06.563Z,22.30
2018-10-15T13:03:34.790Z,22.30
2018-10-15T13:06:02.987Z,22.40
2018-10-15T13:08:31.228Z,22.40
2018-10-15T13:10:59.433Z,22.40
2018-10-15T13:13:29.162Z,22.40
2018-10-15T13:15:57.328Z,22.40
2018-10-15T13:18:25.546Z,22.50
2018-10-15T13:20:54.235Z,22.50
2018-10-15T13:23:22.507Z,22.60
2018-10-15T13:25:50.782Z,22.60
2018-10-15T13:28:18.991Z,22.60
2018-10-15T13:30:47.279Z,22.60
2018-10-15T13:33:15.542Z,22.60
2018-10-15T13:35:43.747Z,22.60
2018-10-15T13:38:11.943Z,22.70
2018-10-15T13:40:40.250Z,22.70
2018-10-15T13:43:08.510Z,22.70
2018-10-15T13:45:36.783Z,22.70
2018-10-15T13:48:05.231Z,22.80
2018-10-15T13:50:33.507Z,22.80
2018-10-15T13:53:01.934Z,22.80
2018-10-15T13:55:30.116Z,22.90
2018-10-15T13:58:00.016Z,22.90
2018-10-15T14:00:32.847Z,22.90
2018-10-15T14:03:02.151Z,22.90
2018-10-15T14:05:30.408Z,23.00
2018-10-15T14:07:58.686Z,23.00
2018-10-15T14:10:26.927Z,23.00
2018-10-15T14:12:55.183Z,23.10
2018-10-15T14:15:23.400Z,23.10
2018-10-15T14:17:51.677Z,23.10
2018-10-15T14:20:19.855Z,23.10
2018-10-15T14:22:48.065Z,23.10
2018-10-15T14:25:16.618Z,23.10
2018-10-15T14:27:44.921Z,23.20
2018-10-15T14:30:16.538Z,23.20
2018-10-15T14:32:45.729Z,23.20
2018-10-15T14:35:14.859Z,23.20
2018-10-15T14:37:43.515Z,23.30
2018-10-15T14:40:14.266Z,23.30
2018-10-15T14:42:42.780Z,23.40
2018-10-15T14:45:12.175Z,23.40
2018-10-15T14:47:40.500Z,23.40
2018-10-15T14:50:15.033Z,23.50
2018-10-15T14:52:52.653Z,23.50
2018-10-15T14:55:21.175Z,23.50
2018-10-15T14:57:50.156Z,23.50
2018-10-15T15:00:19.260Z,23.50
2018-10-15T15:02:47.590Z,23.50
2018-10-15T15:05:16.162Z,23.50
2018-10-15T15:07:44.545Z,23.50
2018-10-15T15:10:24.729Z,23.50
2018-10-15T15:13:04.353Z,23.50
2018-10-15T15:15:32.565Z,23.40
2018-10-15T15:18:01.050Z,23.40
2018-10-15T15:20:30.722Z,23.40
2018-10-15T15:22:58.969Z,23.40
2018-10-15T15:25:27.183Z,23.40
2018-10-15T15:27:55.417Z,23.40
2018-10-15T15:30:24.769Z,23.30
2018-10-15T15:32:53.078Z,23.30
2018-10-15T15:35:21.234Z,23.20
2018-10-15T15:37:49.483Z,23.20
2018-10-15T15:40:18.090Z,23.20
2018-10-15T15:42:46.317Z,23.20
2018-10-15T15:45:14.746Z,23.20
2018-10-15T15:47:43.002Z,23.20
2018-10-15T15:50:11.763Z,23.10
2018-10-15T15:52:40.068Z,23.10
2018-10-15T15:55:09.258Z,23.00
2018-10-15T15:57:37.497Z,23.00
2018-10-15T16:00:07.784Z,22.90
2018-10-15T16:02:36.006Z,22.80
2018-10-15T16:05:04.601Z,22.70
2018-10-15T16:07:34.634Z,22.70
2018-10-15T16:10:03.100Z,22.60
2018-10-15T16:12:31.297Z,22.50
2018-10-15T16:14:59.484Z,22.40
2018-10-15T16:17:28.300Z,22.30
2018-10-15T16:19:56.748Z,22.20
2018-10-15T16:22:24.968Z,22.10
2018-10-15T16:24:53.182Z,22.00
2018-10-15T16:27:21.460Z,22.00
2018-10-15T16:29:49.690Z,21.90
2018-10-15T16:32:18.065Z,21.80
2018-10-15T16:34:46.354Z,21.70
2018-10-15T16:37:14.612Z,21.60
2018-10-15T16:39:42.894Z,21.50
2018-10-15T16:42:11.149Z,21.40
2018-10-15T16:44:39.398Z,21.30
2018-10-15T16:47:08.903Z,21.20
2018-10-15T16:49:37.214Z,21.20
2018-10-15T16:52:05.597Z,21.10
2018-10-15T16:54:33.811Z,21.00
2018-10-15T16:57:02.097Z,20.90
2018-10-15T16:59:30.347Z,20.80
2018-10-15T17:01:58.644Z,20.70
2018-10-15T17:04:26.862Z,20.60
2018-10-15T17:06:55.095Z,20.50
2018-10-15T17:09:23.410Z,20.40
2018-10-15T17:11:51.616Z,20.30
2018-10-15T17:14:19.859Z,20.20
2018-10-15T17:16:48.196Z,20.20
2018-10-15T17:19:16.617Z,20.10
2018-10-15T17:21:44.848Z,20.00
2018-10-15T17:24:13.061Z,20.00
2018-10-15T17:26:41.309Z,19.90
2018-10-15T17:29:09.903Z,19.80
2018-10-15T17:31:38.254Z,19.70
2018-10-15T17:34:06.771Z,19.60
2018-10-15T17:36:34.951Z,19.50
2018-10-15T17:39:04.362Z,19.40
2018-10-15T17:41:33.619Z,19.30
2018-10-15T17:44:01.880Z,19.30
2018-10-15T17:46:30.138Z,19.20
2018-10-15T17:48:58.487Z,19.20
2018-10-15T17:51:26.733Z,19.10
2018-10-15T17:53:54.972Z,19.00
2018-10-15T17:56:23.223Z,19.00
2018-10-15T17:58:51.536Z,18.90
2018-10-15T18:01:19.771Z,18.80
2018-10-15T18:03:49.092Z,18.80
2018-10-15T18:06:17.445Z,18.70
2018-10-15T18:08:45.800Z,18.60
2018-10-15T18:11:14.033Z,18.60
2018-10-15T18:13:42.856Z,18.50
2018-10-15T18:16:11.094Z,18.40
2018-10-15T18:18:39.364Z,18.40
2018-10-15T18:21:07.734Z,18.40
2018-10-15T18:23:35.953Z,18.30
2018-10-15T18:26:04.316Z,18.20
2018-10-15T18:28:32.514Z,18.20
2018-10-15T18:31:00.738Z,18.10
2018-10-15T18:33:28.943Z,18.10
2018-10-15T18:35:57.207Z,18.00
2018-10-15T18:38:25.468Z,18.00
2018-10-15T18:40:53.688Z,17.90
2018-10-15T18:43:22.586Z,17.90
2018-10-15T18:45:51.764Z,17.80
2018-10-15T18:48:19.939Z,17.80
2018-10-15T18:50:48.181Z,17.70
2018-10-15T18:53:16.433Z,17.70
2018-10-15T18:55:44.640Z,17.70
2018-10-15T18:58:12.916Z,17.60
2018-10-15T19:00:41.158Z,17.60
2018-10-15T19:03:09.357Z,17.50
2018-10-15T19:05:37.669Z,17.50
2018-10-15T19:08:05.876Z,17.50
2018-10-15T19:10:34.080Z,17.40
2018-10-15T19:13:02.338Z,17.40
2018-10-15T19:15:30.727Z,17.30
2018-10-15T19:17:58.941Z,17.30
2018-10-15T19:20:27.169Z,17.20
2018-10-15T19:22:55.375Z,17.20
2018-10-15T19:25:23.682Z,17.10
2018-10-15T19:27:52.932Z,17.10
2018-10-15T19:30:21.171Z,17.10
2018-10-15T19:32:49.419Z,17.00
2018-10-15T19:35:17.675Z,17.00
2018-10-15T19:37:45.930Z,16.90
2018-10-15T19:40:14.581Z,16.90
2018-10-15T19:42:42.812Z,16.90
2018-10-15T19:45:11.260Z,16.80
2018-10-15T19:47:40.127Z,16.80
2018-10-15T19:50:08.864Z,16.80
2018-10-15T19:52:37.091Z,16.70
2018-10-15T19:55:06.307Z,16.70
2018-10-15T19:57:34.821Z,16.60
2018-10-15T20:00:03.010Z,16.60
2018-10-15T20:02:31.256Z,16.60
2018-10-15T20:04:59.533Z,16.60
2018-10-15T20:07:27.844Z,16.50
2018-10-15T20:09:56.226Z,16.50
2018-10-15T20:12:24.336Z,16.50
2018-10-15T20:14:53.692Z,16.50
2018-10-15T20:17:21.962Z,16.40
2018-10-15T20:19:50.105Z,16.40
2018-10-15T20:22:18.455Z,16.40
2018-10-15T20:24:46.661Z,16.30
2018-10-15T20:27:14.918Z,16.30
2018-10-15T20:29:43.178Z,16.30
2018-10-15T20:32:11.444Z,16.30
2018-10-15T20:34:39.704Z,16.20
2018-10-15T20:37:07.964Z,16.20
2018-10-15T20:39:36.238Z,16.20
2018-10-15T20:42:04.582Z,16.20
2018-10-15T20:44:33.826Z,16.10
2018-10-15T20:47:02.178Z,16.10
2018-10-15T20:49:30.460Z,16.10
2018-10-15T20:51:58.722Z,16.10
2018-10-15T20:54:27.031Z,16.00
2018-10-15T20:56:55.311Z,16.00
2018-10-15T20:59:23.580Z,16.00
2018-10-15T21:01:51.960Z,15.90
2018-10-15T21:04:20.312Z,15.90
2018-10-15T21:06:48.919Z,15.80
2018-10-15T21:09:17.239Z,15.80
2018-10-15T21:11:45.500Z,15.80
2018-10-15T21:14:13.790Z,15.80
2018-10-15T21:16:42.036Z,15.70
2018-10-15T21:19:10.285Z,15.70
2018-10-15T21:21:38.523Z,15.60
2018-10-15T21:24:07.188Z,15.60
2018-10-15T21:26:35.708Z,15.60
2018-10-15T21:29:03.946Z,15.50
2018-10-15T21:31:32.209Z,15.50
2018-10-15T21:34:00.478Z,15.50
2018-10-15T21:36:28.781Z,15.50
2018-10-15T21:38:58.861Z,15.50
2018-10-15T21:41:27.073Z,15.40
2018-10-15T21:43:55.292Z,15.40
2018-10-15T21:46:23.654Z,15.40
2018-10-15T21:48:52.105Z,15.40
2018-10-15T21:51:20.407Z,15.40
2018-10-15T21:53:48.626Z,15.40
2018-10-15T21:56:16.899Z,15.30
2018-10-15T21:58:45.141Z,15.30
2018-10-15T22:01:13.488Z,15.30
2018-10-15T22:03:42.066Z,15.30
2018-10-15T22:06:10.374Z,15.30
2018-10-15T22:08:39.680Z,15.20
2018-10-15T22:11:07.947Z,15.20
2018-10-15T22:13:36.224Z,15.20
2018-10-15T22:16:05.247Z,15.10
2018-10-15T22:18:33.553Z,15.10
2018-10-15T22:21:01.822Z,15.10
2018-10-15T22:23:30.077Z,15.10
2018-10-15T22:25:58.430Z,15.00
2018-10-15T22:28:26.721Z,15.00
2018-10-15T22:30:54.990Z,15.00
2018-10-15T22:33:23.301Z,14.90
2018-10-15T22:35:51.639Z,14.90
2018-10-15T22:38:19.955Z,14.90
2018-10-15T22:40:48.219Z,14.80
2018-10-15T22:43:16.468Z,14.80
2018-10-15T22:45:44.750Z,14.80
2018-10-15T22:48:13.064Z,14.80
2018-10-15T22:50:41.322Z,14.70
2018-10-15T22:53:09.674Z,14.70
2018-10-15T22:55:37.952Z,14.70
2018-10-15T22:58:06.195Z,14.70
2018-10-15T23:00:34.494Z,14.70
2018-10-15T23:03:04.515Z,14.60
2018-10-15T23:05:32.740Z,14.60
2018-10-15T23:08:01.035Z,14.60
2018-10-15T23:10:31.202Z,14.60
2018-10-15T23:13:00.073Z,14.50
2018-10-15T23:15:28.463Z,14.50
2018-10-15T23:17:56.745Z,14.50
2018-10-15T23:20:25.007Z,14.50
2018-10-15T23:22:53.244Z,14.50
2018-10-15T23:25:21.559Z,14.40
2018-10-15T23:27:49.837Z,14.40
2018-10-15T23:30:18.070Z,14.40
2018-10-15T23:32:46.289Z,14.40
2018-10-15T23:35:14.516Z,14.30
2018-10-15T23:37:43.036Z,14.30
2018-10-15T23:40:12.374Z,14.30
2018-10-15T23:42:40.669Z,14.30
2018-10-15T23:45:10.459Z,14.30
2018-10-15T23:47:39.165Z,14.20
2018-10-15T23:50:12.786Z,14.20
2018-10-15T23:52:41.025Z,14.10
2018-10-15T23:55:10.664Z,14.00
2018-10-15T23:57:38.909Z,14.00
